Time;durP1;ratioP1;P1;durP2;ratioP2;P2;SDS_P1;SDS_P2;PMS_P1;PMS_P2;Temp;Humidity;BMP_temperature;BMP_pressure;BME280_temperature;BME280_humidity;BME280_pressure;Samples;Min_cycle;Max_cycle;Signal;HPM_P1;HPM_P2
2022/10/15 00:01:35;;;;;;;5.75;4.30;;;;;;;22.33;44.75;95167.25;5009811;28;20104;-67
2022/10/15 00:04:01;;;;;;;6.68;4.40;;;;;;;22.32;44.96;95160.34;5000638;28;20072;-68
2022/10/15 00:06:26;;;;;;;6.97;4.85;;;;;;;21.72;44.63;95075.38;5026216;28;20443;-67
2022/10/15 00:08:52;;;;;;;6.97;4.78;;;;;;;22.31;44.66;95169.72;5029396;28;20014;-62
2022/10/15 00:11:19;;;;;;;6.72;4.40;;;;;;;21.98;44.94;95120.81;5016812;28;20025;-64
2022/10/15 00:13:45;;;;;;;6.97;4.15;;;;;;;22.30;45.11;95157.38;5024189;28;20064;-62
2022/10/15 00:16:18;;;;;;;6.80;3.90;;;;;;;22.30;44.71;95156.63;5028407;28;20245;-65
2022/10/15 00:18:43;;;;;;;6.53;4.47;;;;;;;22.30;44.68;95156.63;5024640;28;20095;-65
2022/10/15 00:21:10;;;;;;;6.88;4.35;;;;;;;22.30;44.82;95162.06;5004058;28;20053;-68
2022/10/15 00:23:35;;;;;;;6.18;4.35;;;;;;;22.29;45.08;95155.88;5023526;28;20040;-64
2022/10/15 00:26:11;;;;;;;6.38;3.88;;;;;;;22.22;45.14;95139.34;5005797;28;20053;-62
2022/10/15 00:28:36;;;;;;;6.10;4.20;;;;;;;22.12;44.72;95136.13;5023264;28;20056;-62
2022/10/15 00:31:07;;;;;;;5.22;3.88;;;;;;;22.12;44.91;95136.13;5005017;28;20638;-62
2022/10/15 00:33:33;;;;;;;6.07;4.43;;;;;;;22.28;45.19;95159.84;5022408;28;20424;-63
2022/10/15 00:36:02;;;;;;;5.18;3.97;;;;;;;22.08;44.94;95135.63;5021686;28;20021;-62
2022/10/15 00:38:28;;;;;;;4.87;4.07;;;;;;;21.81;44.99;95094.13;5021679;28;20111;-63
2022/10/15 00:40:53;;;;;;;5.03;4.22;;;;;;;22.26;45.10;95146.00;5023033;28;20512;-61
2022/10/15 00:43:44;;;;;;;5.88;4.30;;;;;;;21.58;45.22;95046.50;5023294;28;20033;-62
2022/10/15 00:46:24;;;;;;;5.60;4.00;;;;;;;21.88;45.01;95093.63;5006945;28;20103;-63
2022/10/15 00:49:11;;;;;;;5.72;4.15;;;;;;;22.25;44.57;95139.06;5008110;28;20140;-62
2022/10/15 00:51:40;;;;;;;6.68;4.10;;;;;;;22.11;45.10;95112.88;4988797;28;20208;-67
2022/10/15 00:54:06;;;;;;;6.38;4.60;;;;;;;20.80;44.98;94926.81;5004419;28;20073;-65
2022/10/15 00:56:31;;;;;;;5.47;3.97;;;;;;;21.51;45.00;95008.97;4989768;28;20107;-65
2022/10/15 00:58:57;;;;;;;5.10;3.78;;;;;;;21.34;45.30;94989.19;5023492;28;20026;-62
2022/10/15 01:01:24;;;;;;;5.70;4.28;;;;;;;22.22;45.11;95129.19;5019059;28;20054;-62
2022/10/15 01:03:50;;;;;;;5.43;3.70;;;;;;;22.22;45.08;95126.47;5026453;28;20092;-65
2022/10/15 01:06:15;;;;;;;5.13;3.92;;;;;;;22.22;45.17;95121.03;4992680;28;20052;-65
2022/10/15 01:08:41;;;;;;;5.07;3.72;;;;;;;22.23;45.28;95127.22;5010412;28;20032;-63
2022/10/15 01:11:19;;;;;;;5.38;4.03;;;;;;;22.08;45.12;95100.28;5026378;28;20496;-62
2022/10/15 01:13:45;;;;;;;4.95;4.05;;;;;;;22.21;45.04;95127.72;4994974;28;20120;-62
2022/10/15 01:16:23;;;;;;;4.68;3.55;;;;;;;21.47;44.75;95022.06;5032734;28;20542;-63
2022/10/15 01:19:10;;;;;;;5.55;3.67;;;;;;;21.24;44.86;94982.56;5030730;28;20033;-63
2022/10/15 01:22:20;;;;;;;4.95;3.58;;;;;;;22.20;44.87;95126.22;4998110;28;20064;-66
2022/10/15 01:25:30;;;;;;;5.15;3.80;;;;;;;21.64;45.07;95041.78;5011447;28;20096;-63
2022/10/15 01:28:24;;;;;;;5.20;4.00;;;;;;;22.20;44.78;95136.34;4964939;28;20137;-63
2022/10/15 01:30:57;;;;;;;5.40;3.80;;;;;;;21.65;44.95;95037.84;4995109;28;20050;-62
2022/10/15 01:33:29;;;;;;;5.68;3.83;;;;;;;22.20;44.89;95125.47;4974769;28;20046;-62
2022/10/15 01:36:05;;;;;;;6.25;3.88;;;;;;;22.09;45.25;95126.25;5020704;28;20072;-64
2022/10/15 01:38:40;;;;;;;5.47;3.60;;;;;;;22.17;45.29;95127.19;5028133;28;20587;-61
2022/10/15 01:41:40;;;;;;;4.68;3.60;;;;;;;22.15;45.07;95118.81;5026604;28;20041;-62
2022/10/15 01:44:26;;;;;;;5.03;3.67;;;;;;;22.18;44.97;95123.25;4993954;28;20064;-63
2022/10/15 01:46:59;;;;;;;4.00;3.40;;;;;;;21.53;44.89;95025.50;5025526;28;20136;-63
2022/10/15 01:49:26;;;;;;;4.13;3.35;;;;;;;21.95;45.18;95102.03;5025342;28;20069;-64
2022/10/15 01:51:52;;;;;;;4.10;3.22;;;;;;;21.91;44.94;95087.94;5008152;28;20412;-66
2022/10/15 01:54:19;;;;;;;4.85;3.58;;;;;;;22.16;45.00;95124.97;5021291;28;20125;-63
2022/10/15 01:56:48;;;;;;;5.70;3.60;;;;;;;22.15;45.03;95135.13;4975952;28;20079;-62
2022/10/15 01:59:34;;;;;;;5.13;3.28;;;;;;;21.81;44.94;95069.66;4993749;28;20037;-62
2022/10/15 02:02:00;;;;;;;4.57;3.30;;;;;;;22.15;44.86;95143.28;5009489;28;20037;-64
2022/10/15 02:04:30;;;;;;;4.22;3.35;;;;;;;20.84;44.94;94919.91;5026399;28;20041;-69
2022/10/15 02:07:00;;;;;;;5.38;3.75;;;;;;;22.15;45.04;95121.53;5038632;28;20555;-63
2022/10/15 02:09:31;;;;;;;5.15;3.22;;;;;;;22.14;45.22;95122.03;5007726;28;20471;-61
2022/10/15 02:12:27;;;;;;;5.20;3.65;;;;;;;21.05;44.83;94964.56;5026074;28;20599;-63
2022/10/15 02:15:00;;;;;;;4.35;3.10;;;;;;;22.06;45.00;95110.91;5007385;28;20144;-62
2022/10/15 02:17:33;;;;;;;4.95;3.28;;;;;;;22.12;44.95;95127.97;5007987;28;20574;-63
2022/10/15 02:20:11;;;;;;;5.75;3.20;;;;;;;20.87;45.07;94926.31;5025136;28;20033;-62
2022/10/15 02:22:41;;;;;;;4.03;3.10;;;;;;;21.94;44.89;95093.16;5003867;28;20047;-62
2022/10/15 02:25:10;;;;;;;5.18;3.28;;;;;;;21.03;45.01;94962.34;5006919;28;20045;-64
2022/10/15 02:27:35;;;;;;;4.05;3.17;;;;;;;22.11;45.11;95123.75;4991379;28;20695;-63
2022/10/15 02:30:02;;;;;;;4.68;3.20;;;;;;;21.36;45.08;95010.44;5007110;28;20099;-62
2022/10/15 02:32:27;;;;;;;4.70;3.10;;;;;;;22.11;45.38;95129.19;5026385;28;20099;-63
2022/10/15 02:34:53;;;;;;;3.65;3.17;;;;;;;22.11;45.08;95131.91;5006724;28;20034;-64
2022/10/15 02:37:20;;;;;;;5.45;3.20;;;;;;;21.63;45.07;95062.06;5024955;28;20041;-63
2022/10/15 02:39:45;;;;;;;4.00;2.85;;;;;;;21.28;45.24;95004.75;5007538;28;20124;-62
2022/10/15 02:42:11;;;;;;;3.83;2.92;;;;;;;22.05;45.24;95131.19;5007199;28;20037;-64
2022/10/15 02:44:36;;;;;;;3.35;2.80;;;;;;;22.03;45.35;95120.06;5012444;28;20030;-63
2022/10/15 02:47:01;;;;;;;3.78;3.10;;;;;;;21.49;45.31;95052.19;5024902;28;20787;-65
2022/10/15 02:49:27;;;;;;;4.60;3.10;;;;;;;21.27;45.19;95003.28;5013439;28;20052;-64
2022/10/15 02:51:52;;;;;;;3.85;2.88;;;;;;;22.09;45.14;95139.84;5023685;28;20034;-63
2022/10/15 02:54:18;;;;;;;3.72;2.90;;;;;;;21.92;45.15;95128.22;5024499;28;20053;-63
2022/10/15 02:56:43;;;;;;;4.90;3.20;;;;;;;21.84;45.20;95087.72;5024952;28;20111;-71
2022/10/15 02:59:09;;;;;;;3.95;2.80;;;;;;;21.28;44.92;95004.75;5025613;28;20025;-62
2022/10/15 03:01:34;;;;;;;4.10;2.90;;;;;;;21.98;45.25;95109.94;5024492;28;20043;-63
2022/10/15 03:04:00;;;;;;;4.63;3.17;;;;;;;21.48;45.09;95039.84;5025246;28;20033;-66
2022/10/15 03:06:26;;;;;;;4.32;2.90;;;;;;;20.80;45.03;94932.97;5033176;28;20521;-71
2022/10/15 03:08:51;;;;;;;4.32;2.83;;;;;;;22.08;45.15;95127.47;5016241;28;20025;-62
2022/10/15 03:11:17;;;;;;;4.13;3.03;;;;;;;22.06;45.42;95116.34;5023944;28;20939;-62
2022/10/15 03:13:42;;;;;;;4.55;3.00;;;;;;;21.86;45.21;95090.69;5025256;28;20107;-62
2022/10/15 03:16:08;;;;;;;5.13;2.90;;;;;;;21.40;45.11;95032.66;5024999;28;20033;-61
2022/10/15 03:18:34;;;;;;;3.50;2.92;;;;;;;22.05;45.35;95125.75;5024733;28;20577;-67
2022/10/15 03:20:59;;;;;;;3.92;2.95;;;;;;;21.90;44.99;95102.03;5023080;28;20049;-65
2022/10/15 03:23:25;;;;;;;4.68;3.03;;;;;;;21.31;45.27;95020.06;5007807;28;20515;-62
2022/10/15 03:25:51;;;;;;;3.88;2.85;;;;;;;21.95;45.37;95116.34;5019948;28;20041;-62
2022/10/15 03:28:17;;;;;;;4.38;3.08;;;;;;;21.34;45.31;95018.34;5023092;28;20449;-62
2022/10/15 03:30:42;;;;;;;4.82;2.97;;;;;;;21.28;45.09;95012.91;5024007;28;20046;-62
2022/10/15 03:33:08;;;;;;;3.75;2.80;;;;;;;21.76;45.32;95092.19;5024172;28;20049;-63
2022/10/15 03:35:33;;;;;;;5.32;3.13;;;;;;;22.05;45.30;95133.16;5025176;28;20026;-66
2022/10/15 03:37:59;;;;;;;4.10;3.28;;;;;;;21.68;45.10;95074.91;5024332;28;20072;-62
2022/10/15 03:40:24;;;;;;;3.63;2.50;;;;;;;21.28;45.36;95015.63;5024426;28;20052;-64
2022/10/15 03:42:50;;;;;;;3.63;2.47;;;;;;;21.72;45.29;95080.81;5024178;28;20125;-64
2022/10/15 03:45:16;;;;;;;4.28;2.70;;;;;;;;;;5023153;28;20091;-64
2022/10/15 03:47:41;;;;;;;4.85;2.75;;;;;;;21.44;45.60;95039.31;5024764;28;20021;-60
2022/10/15 03:50:07;;;;;;;3.78;3.05;;;;;;;21.07;45.32;94979.09;5022516;28;20033;-69
2022/10/15 03:52:33;;;;;;;4.00;2.90;;;;;;;21.27;45.26;95016.13;5024336;28;20049;-61
2022/10/15 03:54:58;;;;;;;3.75;2.60;;;;;;;21.63;45.59;95094.69;5024349;28;20168;-60
2022/10/15 03:57:23;;;;;;;4.57;2.90;;;;;;;21.66;45.53;95099.13;5023953;28;20107;-61
2022/10/15 03:59:49;;;;;;;3.92;2.92;;;;;;;22.02;45.70;95148.50;5023074;28;20040;-62
2022/10/15 04:02:14;;;;;;;3.17;2.42;;;;;;;22.02;45.65;95143.06;5011373;28;20044;-62
2022/10/15 04:04:40;;;;;;;4.50;2.60;;;;;;;21.76;45.60;95114.66;5023847;28;20048;-61
2022/10/15 04:07:05;;;;;;;4.15;2.88;;;;;;;21.04;45.63;95001.81;5037905;28;20148;-61
2022/10/15 04:09:31;;;;;;;3.33;2.72;;;;;;;21.41;45.85;95055.88;5023990;28;20056;-61
2022/10/15 04:11:56;;;;;;;4.75;2.45;;;;;;;21.89;46.01;95127.75;5021807;28;20423;-63
2022/10/15 04:14:22;;;;;;;3.80;2.50;;;;;;;21.20;45.62;95022.78;5024721;28;20040;-64
2022/10/15 04:16:47;;;;;;;4.43;2.70;;;;;;;21.85;45.76;95154.44;5022402;28;20048;-61
2022/10/15 04:19:13;;;;;;;4.00;2.60;;;;;;;21.15;45.72;95012.69;5024220;28;20468;-63
2022/10/15 04:21:38;;;;;;;4.53;2.60;;;;;;;20.99;45.79;94988.97;5022459;28;20420;-61
2022/10/15 04:24:04;;;;;;;4.72;2.60;;;;;;;21.84;46.17;95136.63;5020487;28;20473;-62
2022/10/15 04:26:29;;;;;;;3.42;2.55;;;;;;;21.69;45.71;95114.44;5024600;28;20420;-63
2022/10/15 04:28:55;;;;;;;4.53;2.85;;;;;;;20.95;45.49;94992.44;5032700;28;20153;-62
2022/10/15 04:31:20;;;;;;;3.70;2.60;;;;;;;21.50;46.00;95084.28;5028544;28;20065;-68
2022/10/15 04:33:49;;;;;;;3.75;2.50;;;;;;;22.00;45.93;95145.53;5022731;28;20428;-60
2022/10/15 04:36:14;;;;;;;3.60;2.60;;;;;;;21.30;45.81;95051.19;5023943;28;20081;-61
2022/10/15 04:38:40;;;;;;;3.53;2.55;;;;;;;21.99;45.85;95148.75;5033041;28;20025;-61
2022/10/15 04:41:09;;;;;;;5.20;2.63;;;;;;;21.98;45.58;95152.69;5032383;28;20044;-61
2022/10/15 04:43:35;;;;;;;3.83;2.65;;;;;;;21.99;45.86;95157.63;5027856;28;20068;-61
2022/10/15 04:46:02;;;;;;;3.88;2.80;;;;;;;21.70;45.82;95110.47;5008882;28;20055;-61
2022/10/15 04:48:27;;;;;;;4.43;2.70;;;;;;;21.42;45.90;95075.13;4997083;28;20780;-66
2022/10/15 04:50:53;;;;;;;4.43;2.60;;;;;;;21.55;45.83;95096.38;5016929;28;20032;-62
2022/10/15 04:53:19;;;;;;;3.90;2.80;;;;;;;22.00;46.10;95161.84;5037407;28;20508;-66
2022/10/15 04:55:44;;;;;;;3.72;2.60;;;;;;;21.09;45.97;95041.81;5009789;28;20060;-66
2022/10/15 04:58:10;;;;;;;3.33;2.40;;;;;;;21.06;45.78;95029.22;5027754;28;20113;-62
2022/10/15 05:00:35;;;;;;;4.53;2.75;;;;;;;21.94;46.08;95174.72;5027817;28;20048;-67
2022/10/15 05:03:00;;;;;;;4.18;2.80;;;;;;;21.13;46.05;95030.69;5022788;28;20045;-70
2022/10/15 05:05:26;;;;;;;3.85;2.60;;;;;;;21.67;46.25;95119.59;5011990;28;20079;-66
2022/10/15 05:07:51;;;;;;;3.88;2.63;;;;;;;22.06;46.17;95175.41;5027237;28;20060;-65
2022/10/15 05:10:17;;;;;;;5.35;2.53;;;;;;;21.71;45.95;95145.31;5039451;28;20056;-63
2022/10/15 05:12:42;;;;;;;4.10;2.50;;;;;;;22.07;45.95;95187.78;5035942;28;20567;-64
2022/10/15 05:15:08;;;;;;;4.15;2.60;;;;;;;21.68;45.71;95123.81;5020318;28;20525;-65
2022/10/15 05:17:34;;;;;;;3.65;2.80;;;;;;;21.20;45.93;95052.66;5022055;28;20033;-62
2022/10/15 05:19:59;;;;;;;3.63;2.78;;;;;;;21.58;45.88;95092.69;5026122;28;20512;-64
2022/10/15 05:22:24;;;;;;;5.03;2.83;;;;;;;21.45;45.86;95063.31;5039764;28;20052;-61
2022/10/15 05:24:50;;;;;;;3.65;2.53;;;;;;;21.27;45.94;95041.31;5016766;28;20041;-62
2022/10/15 05:27:15;;;;;;;4.65;2.70;;;;;;;21.82;45.93;95128.25;5046993;28;20037;-66
2022/10/15 05:29:41;;;;;;;3.38;2.40;;;;;;;21.74;45.73;95108.97;5046146;28;20032;-63
2022/10/15 05:32:06;;;;;;;3.95;2.40;;;;;;;21.51;46.08;95071.47;5047158;28;20029;-65
2022/10/15 05:34:32;;;;;;;4.60;2.60;;;;;;;22.35;45.92;95194.72;5039184;28;20033;-65
2022/10/15 05:36:58;;;;;;;3.53;2.42;;;;;;;22.12;45.97;95155.16;5034259;28;20029;-66
2022/10/15 05:39:24;;;;;;;3.17;2.33;;;;;;;21.64;45.44;95079.84;5046860;28;20132;-62
2022/10/15 05:41:49;;;;;;;4.40;2.55;;;;;;;21.19;45.49;95013.16;5039922;28;20013;-65
2022/10/15 05:44:14;;;;;;;3.70;2.45;;;;;;;22.03;45.39;95128.22;5040393;28;20024;-64
2022/10/15 05:46:40;;;;;;;3.75;2.75;;;;;;;21.95;45.65;95116.34;5035258;28;20461;-70
2022/10/15 05:49:05;;;;;;;3.92;2.38;;;;;;;21.87;45.25;95103.03;5041732;28;20041;-73
2022/10/15 05:51:31;;;;;;;4.03;2.72;;;;;;;22.51;45.50;95191.19;5046860;28;20423;-62
2022/10/15 05:53:56;;;;;;;3.00;2.33;;;;;;;22.69;45.41;95215.13;5021890;28;20030;-67
2022/10/15 05:56:22;;;;;;;3.72;2.45;;;;;;;22.69;45.41;95209.69;5034665;28;20083;-69
2022/10/15 05:58:48;;;;;;;4.45;2.25;;;;;;;22.73;45.25;95216.38;5037665;28;20057;-68
2022/10/15 06:01:13;;;;;;;3.55;2.47;;;;;;;22.79;45.30;95213.63;5024083;28;20045;-69
2022/10/15 06:03:39;;;;;;;4.55;2.47;;;;;;;22.84;44.91;95212.88;5023790;28;20038;-68
2022/10/15 06:06:15;;;;;;;3.85;2.83;;;;;;;22.64;44.79;95175.06;5032372;28;20133;-68
2022/10/15 06:08:41;;;;;;;3.75;2.40;;;;;;;22.68;44.69;95176.31;5044612;28;20140;-67
2022/10/15 06:11:06;;;;;;;4.00;2.50;;;;;;;22.97;44.86;95198.25;5024010;28;20048;-68
2022/10/15 06:13:32;;;;;;;3.40;2.30;;;;;;;22.85;44.40;95184.41;5032126;28;20068;-67
2022/10/15 06:15:57;;;;;;;3.63;2.42;;;;;;;22.13;44.38;95088.63;5043849;28;20454;-67
2022/10/15 06:18:22;;;;;;;3.95;2.72;;;;;;;22.60;44.32;95153.56;5036901;28;20519;-69
2022/10/15 06:20:51;;;;;;;3.42;2.67;;;;;;;23.09;44.83;95221.47;5040327;28;20017;-68
2022/10/15 06:23:17;;;;;;;4.53;2.63;;;;;;;22.76;44.29;95155.47;5020032;28;20041;-67
2022/10/15 06:25:42;;;;;;;4.70;2.95;;;;;;;22.67;44.32;95146.84;5025736;28;20044;-66
2022/10/15 06:28:08;;;;;;;2.80;2.20;;;;;;;22.54;44.21;95127.59;5044181;28;20163;-65
2022/10/15 06:30:33;;;;;;;3.83;2.70;;;;;;;22.81;43.87;95160.16;5043944;28;20516;-67
2022/10/15 06:32:59;;;;;;;3.85;2.72;;;;;;;23.20;44.01;95240.50;5035086;28;20049;-67
2022/10/15 06:35:25;;;;;;;4.38;2.75;;;;;;;23.32;43.85;95233.75;5024217;28;20062;-69
2022/10/15 06:37:51;;;;;;;3.80;2.47;;;;;;;23.39;43.68;95249.53;5024343;28;20149;-65
2022/10/15 06:40:16;;;;;;;3.35;2.45;;;;;;;22.60;43.47;95098.38;5033715;28;20025;-67
2022/10/15 06:42:42;;;;;;;3.72;2.35;;;;;;;23.36;43.87;95228.75;5040416;28;20091;-69
2022/10/15 06:45:11;;;;;;;3.60;2.40;;;;;;;22.98;44.12;95177.94;5040036;28;20091;-65
2022/10/15 06:47:36;;;;;;;3.63;2.80;;;;;;;23.07;43.63;95191.25;5035189;28;20028;-66
2022/10/15 06:50:04;;;;;;;5.55;3.00;;;;;;;23.15;44.06;95203.13;5038321;28;20099;-67
2022/10/15 06:52:31;;;;;;;4.35;2.67;;;;;;;22.79;43.99;95131.97;5034156;28;20563;-66
2022/10/15 06:54:56;;;;;;;5.15;2.72;;;;;;;23.39;43.94;95225.78;5038246;28;20053;-68
2022/10/15 06:57:24;;;;;;;4.38;2.53;;;;;;;23.23;43.86;95209.50;5043252;28;20872;-66
2022/10/15 06:59:49;;;;;;;3.65;2.38;;;;;;;22.73;43.65;95136.69;5020726;28;20431;-66
2022/10/15 07:02:16;;;;;;;3.78;2.95;;;;;;;23.06;43.99;95184.34;5040042;28;20484;-69
2022/10/15 07:04:42;;;;;;;3.65;2.50;;;;;;;23.09;43.30;95169.72;5032411;28;20124;-66
2022/10/15 07:07:07;;;;;;;4.82;2.42;;;;;;;22.71;42.98;95125.56;5043680;28;20507;-69
2022/10/15 07:09:34;;;;;;;3.47;2.60;;;;;;;23.05;43.76;95176.69;5034375;28;20503;-68
2022/10/15 07:11:59;;;;;;;4.82;2.70;;;;;;;22.67;43.59;95116.91;5023098;28;20183;-67
2022/10/15 07:14:25;;;;;;;3.65;2.63;;;;;;;23.40;42.88;95219.06;5026973;28;20063;-69
2022/10/15 07:16:50;;;;;;;3.03;2.13;;;;;;;23.55;43.05;95246.72;5038176;28;20048;-68
2022/10/15 07:19:16;;;;;;;4.72;2.85;;;;;;;23.45;43.35;95239.34;5040371;28;20577;-71
2022/10/15 07:21:41;;;;;;;3.65;2.67;;;;;;;23.29;42.63;95191.16;5038571;28;20037;-67
2022/10/15 07:24:08;;;;;;;5.60;2.63;;;;;;;22.75;42.78;95098.81;5033154;28;20041;-65
2022/10/15 07:26:33;;;;;;;3.05;2.75;;;;;;;23.24;42.66;95188.44;5037224;28;20042;-69
2022/10/15 07:28:59;;;;;;;4.57;2.88;;;;;;;23.50;42.71;95238.59;5043423;28;20424;-68
2022/10/15 07:31:24;;;;;;;3.88;2.97;;;;;;;23.48;42.75;95241.06;5010663;28;20041;-69
2022/10/15 07:33:50;;;;;;;4.22;2.80;;;;;;;23.62;42.62;95261.84;5042213;28;20065;-68
2022/10/15 07:36:15;;;;;;;4.30;2.95;;;;;;;23.63;42.65;95255.13;5040790;28;20041;-67
2022/10/15 07:38:41;;;;;;;3.72;2.58;;;;;;;23.95;42.39;95252.19;5043256;28;20029;-65
2022/10/15 07:41:08;;;;;;;4.95;2.70;;;;;;;23.05;42.49;95166.50;5040983;28;20021;-71
2022/10/15 07:43:34;;;;;;;5.07;2.85;;;;;;;22.97;42.65;95153.91;5027307;28;20065;-68
2022/10/15 07:46:00;;;;;;;4.38;2.67;;;;;;;22.64;42.28;95096.88;5030939;28;20052;-68
2022/10/15 07:48:25;;;;;;;5.05;2.80;;;;;;;22.92;42.81;95158.13;5042770;28;20127;-68
2022/10/15 07:50:58;;;;;;;5.70;3.00;;;;;;;23.79;42.56;95270.69;5024511;28;20372;-69
2022/10/15 07:53:23;;;;;;;3.55;2.60;;;;;;;23.76;42.80;95266.22;5029685;28;20085;-71
2022/10/15 07:55:49;;;;;;;4.07;2.67;;;;;;;23.07;42.74;95164.03;5011731;28;20802;-68
2022/10/15 07:58:14;;;;;;;4.43;2.80;;;;;;;23.08;42.38;95153.88;5037714;28;20041;-69
2022/10/15 08:00:40;;;;;;;6.65;3.08;;;;;;;23.74;42.32;95252.38;5021172;28;20552;-69
2022/10/15 08:03:05;;;;;;;3.75;2.90;;;;;;;23.39;42.06;95203.22;5033948;28;20044;-69
2022/10/15 08:05:30;;;;;;;3.95;3.03;;;;;;;23.56;42.42;95236.59;5023386;28;20041;-70
2022/10/15 08:07:56;;;;;;;5.07;3.20;;;;;;;23.87;42.20;95267.63;5022718;28;20512;-68
2022/10/15 08:10:21;;;;;;;5.07;3.00;;;;;;;23.21;42.17;95157.50;5029660;28;20115;-71
2022/10/15 08:12:47;;;;;;;4.00;2.75;;;;;;;23.94;42.42;95267.09;5014934;28;20068;-70
2022/10/15 08:15:12;;;;;;;7.22;2.92;;;;;;;23.41;41.65;95181.66;5023711;28;20051;-70
2022/10/15 08:17:38;;;;;;;8.15;3.60;;;;;;;23.62;39.93;95208.03;5006971;28;20527;-74
2022/10/15 08:20:04;;;;;;;6.15;3.28;;;;;;;23.67;38.74;95220.19;5022270;28;20048;-72
2022/10/15 08:22:30;;;;;;;5.15;3.50;;;;;;;24.06;38.60;95260.28;4998242;28;20041;-71
2022/10/15 08:24:55;;;;;;;4.70;3.53;;;;;;;23.81;40.17;95216.34;5000939;28;20080;-68
2022/10/15 08:27:20;;;;;;;4.97;3.35;;;;;;;23.95;39.26;95222.19;5028553;28;20504;-70
2022/10/15 08:29:46;;;;;;;5.93;3.50;;;;;;;23.95;38.96;95246.75;5030122;28;20370;-71
2022/10/15 08:32:11;;;;;;;5.88;3.35;;;;;;;23.97;38.55;95238.78;5022122;28;20421;-72
2022/10/15 08:34:37;;;;;;;4.03;2.90;;;;;;;23.71;39.28;95204.31;5021460;28;20052;-70
2022/10/15 08:37:02;;;;;;;5.05;3.33;;;;;;;23.92;39.22;95247.75;5022080;28;20045;-70
2022/10/15 08:39:28;;;;;;;5.72;3.47;;;;;;;23.29;39.15;95147.56;5022328;28;20772;-70
2022/10/15 08:41:58;;;;;;;4.60;3.42;;;;;;;23.88;38.21;95222.75;5020557;28;20218;-69
2022/10/15 08:44:32;;;;;;;5.97;3.00;;;;;;;24.04;38.60;95221.88;4987915;28;20113;-68
2022/10/15 08:47:09;;;;;;;5.53;3.78;;;;;;;23.10;38.10;95094.91;5017157;28;20048;-69
2022/10/15 08:49:40;;;;;;;5.15;3.50;;;;;;;24.21;37.74;95241.56;5011731;28;20041;-68
2022/10/15 08:52:21;;;;;;;4.80;3.53;;;;;;;23.85;37.40;95175.94;5012011;28;20041;-67
2022/10/15 08:54:47;;;;;;;5.82;3.30;;;;;;;23.68;37.90;95172.59;5000927;28;20053;-70
2022/10/15 08:57:24;;;;;;;4.60;3.28;;;;;;;24.23;36.88;95244.56;5021048;28;20432;-68
2022/10/15 08:59:56;;;;;;;5.57;3.53;;;;;;;23.40;36.75;95112.03;5016364;28;20033;-69
2022/10/15 09:02:24;;;;;;;5.75;3.53;;;;;;;24.16;37.19;95231.44;4982763;28;20055;-70
2022/10/15 09:05:02;;;;;;;3.90;3.20;;;;;;;24.17;36.67;95241.13;5014461;28;20037;-72
2022/10/15 09:07:27;;;;;;;5.10;3.50;;;;;;;24.36;36.94;95248.19;5005159;28;20772;-70
2022/10/15 09:09:57;;;;;;;6.63;3.15;;;;;;;23.65;36.25;95141.63;5021636;28;20052;-73
2022/10/15 09:13:16;;;;;;;4.30;3.38;;;;;;;24.26;36.46;95218.97;4976198;28;20120;-70
2022/10/15 09:16:15;;;;;;;4.63;3.17;;;;;;;24.32;37.15;95241.50;4980572;28;20137;-68
2022/10/15 09:18:43;;;;;;;4.93;3.13;;;;;;;23.83;36.93;95167.53;4990258;28;20060;-70
2022/10/15 09:21:10;;;;;;;5.93;3.50;;;;;;;24.42;36.38;95239.94;4987995;28;20475;-71
2022/10/15 09:23:35;;;;;;;6.40;3.50;;;;;;;24.31;37.00;95248.19;5004979;28;20404;-69
2022/10/15 09:26:19;;;;;;;3.85;3.05;;;;;;;24.35;36.83;95243.25;5025410;28;20041;-70
2022/10/15 09:28:45;;;;;;;4.53;3.20;;;;;;;24.47;36.69;95250.06;5021300;28;20038;-70
2022/10/15 09:31:12;;;;;;;5.93;3.85;;;;;;;24.47;36.26;95236.44;5026068;28;20771;-70
2022/10/15 09:34:00;;;;;;;4.72;3.22;;;;;;;24.31;36.77;95240.00;4987351;28;20088;-70
2022/10/15 09:36:36;;;;;;;5.15;3.40;;;;;;;24.01;35.90;95179.25;5000727;28;20052;-69
2022/10/15 09:39:04;;;;;;;7.47;3.60;;;;;;;24.54;36.59;95236.59;5019183;28;20037;-70
2022/10/15 09:41:48;;;;;;;4.88;3.35;;;;;;;24.50;36.36;95240.88;5007808;28;20111;-69
2022/10/15 09:44:14;;;;;;;4.68;3.10;;;;;;;24.85;37.02;95239.47;5007986;28;20712;-71
2022/10/15 09:46:46;;;;;;;5.13;3.40;;;;;;;24.75;37.21;95213.03;4979354;28;20053;-70
2022/10/15 09:49:17;;;;;;;3.95;3.03;;;;;;;24.98;37.85;95231.41;5032494;28;20045;-68
2022/10/15 09:52:05;;;;;;;7.05;3.40;;;;;;;24.94;37.92;95236.41;5025412;28;20045;-66
2022/10/15 09:54:55;;;;;;;5.18;3.60;;;;;;;24.96;38.00;95239.38;5006802;28;20120;-67
2022/10/15 09:57:21;;;;;;;5.38;3.20;;;;;;;24.93;38.04;95229.47;5017994;28;20030;-65
2022/10/15 09:59:54;;;;;;;4.43;3.38;;;;;;;24.88;38.33;95233.00;5021990;28;20563;-67
2022/10/15 10:02:21;;;;;;;4.65;3.20;;;;;;;24.35;38.34;95175.00;5025649;28;20513;-66
2022/10/15 10:04:46;;;;;;;4.35;2.92;;;;;;;24.32;38.55;95148.69;5041915;28;20106;-68
2022/10/15 10:07:35;;;;;;;5.40;3.25;;;;;;;24.84;38.46;95234.53;5023344;28;20056;-65
2022/10/15 10:10:06;;;;;;;4.90;3.55;;;;;;;24.18;38.56;95160.72;5036608;28;20152;-65
2022/10/15 10:12:35;;;;;;;4.28;3.28;;;;;;;24.66;38.38;95204.44;5027619;28;20191;-65
2022/10/15 10:15:25;;;;;;;4.45;3.63;;;;;;;24.67;39.00;95211.41;5018382;28;20111;-64
2022/10/15 10:17:53;;;;;;;;;;;;;;;24.86;39.00;95242.97;4997835;28;20115;-67
2022/10/15 10:20:20;;;;;;;5.28;3.55;;;;;;;24.85;38.73;95231.28;5044796;28;20375;-66
2022/10/15 10:22:45;;;;;;;3.88;3.40;;;;;;;24.91;38.66;95242.88;5024831;28;20041;-66
2022/10/15 10:25:37;;;;;;;4.72;3.40;;;;;;;24.82;38.99;95233.59;5026957;28;20045;-67
2022/10/15 10:28:13;;;;;;;4.78;3.72;;;;;;;24.47;39.01;95160.00;5009658;28;20041;-65
2022/10/15 10:30:46;;;;;;;4.72;3.38;;;;;;;24.25;39.10;95127.41;5021524;28;20185;-67
2022/10/15 10:33:12;;;;;;;4.95;3.33;;;;;;;24.36;39.07;95143.69;5010904;28;20033;-66
2022/10/15 10:35:51;;;;;;;4.05;3.63;;;;;;;24.97;38.87;95224.44;5018435;28;20106;-66
2022/10/15 10:38:21;;;;;;;4.50;3.20;;;;;;;24.73;39.08;95192.97;5024480;28;20064;-65
2022/10/15 10:40:51;;;;;;;4.80;3.60;;;;;;;24.91;39.11;95221.03;5008897;28;20376;-65
2022/10/15 10:43:17;;;;;;;5.13;3.60;;;;;;;25.07;38.50;95222.88;5002889;28;20583;-68
2022/10/15 10:46:00;;;;;;;4.90;3.65;;;;;;;24.30;38.56;95114.97;5034641;28;20044;-67
2022/10/15 10:48:52;;;;;;;5.47;4.10;;;;;;;25.00;39.10;95219.97;5044960;28;20044;-68
2022/10/15 10:51:22;;;;;;;4.28;3.72;;;;;;;24.91;39.09;95215.56;5005514;28;20042;-66
2022/10/15 10:53:52;;;;;;;4.97;3.42;;;;;;;24.95;38.81;95207.84;5036964;28;20025;-69
2022/10/15 10:56:22;;;;;;;4.88;3.50;;;;;;;25.05;39.16;95225.38;5022672;28;20301;-64
2022/10/15 10:58:47;;;;;;;;;;;;;;;25.18;38.77;95205.59;5009912;28;20452;-67
2022/10/15 11:01:13;;;;;;;4.55;3.60;;;;;;;25.22;38.83;95212.25;5022364;28;19932;-66
2022/10/15 11:03:41;;;;;;;4.10;3.70;;;;;;;24.68;38.66;95120.75;4998020;28;20038;-68
2022/10/15 11:06:42;;;;;;;4.65;3.53;;;;;;;25.29;38.88;95195.28;5002624;28;20108;-66
2022/10/15 11:09:35;;;;;;;5.18;3.80;;;;;;;25.37;38.77;95201.63;4958567;28;20185;-64
2022/10/15 11:12:40;;;;;;;4.75;3.58;;;;;;;25.44;38.46;95201.00;5003975;28;20049;-68
2022/10/15 11:15:27;;;;;;;5.28;3.90;;;;;;;25.46;38.48;95203.97;4985546;28;20042;-65
2022/10/15 11:18:16;;;;;;;4.78;3.78;;;;;;;25.46;38.32;95203.97;5005747;28;20411;-69
2022/10/15 11:20:56;;;;;;;4.75;3.45;;;;;;;25.49;38.44;95197.47;5023611;28;20029;-66
2022/10/15 11:23:27;;;;;;;7.80;3.70;;;;;;;25.60;38.45;95194.56;5006013;28;20346;-66
2022/10/15 11:25:57;;;;;;;4.45;3.53;;;;;;;25.56;38.24;95185.91;5022935;28;20054;-66
2022/10/15 11:28:50;;;;;;;4.60;3.80;;;;;;;25.70;37.98;95201.19;5022846;28;20045;-68
2022/10/15 11:31:37;;;;;;;4.30;3.50;;;;;;;25.72;37.84;95198.66;5005162;28;20052;-67
2022/10/15 11:34:08;;;;;;;4.57;3.65;;;;;;;25.58;37.99;95194.38;5023578;28;20087;-70
2022/10/15 11:36:54;;;;;;;5.93;3.70;;;;;;;25.05;38.09;95132.47;5020334;28;20037;-66
2022/10/15 11:39:57;;;;;;;4.97;3.65;;;;;;;25.56;38.05;95191.38;5013204;28;20065;-65
2022/10/15 11:42:37;;;;;;;4.88;3.90;;;;;;;25.14;38.35;95134.84;5005099;28;20575;-67
2022/10/15 11:45:05;;;;;;;5.75;4.30;;;;;;;25.51;37.84;95195.69;5004407;28;20041;-69
2022/10/15 11:47:57;;;;;;;4.55;3.53;;;;;;;24.82;37.60;95079.34;5014552;28;20068;-64